sensor_id;sensor_type;location;lat;lon;timestamp;P1;durP1;ratioP1;P2;durP2;ratioP2
8046;SDS011;74083;42.516;23.358;2024-01-15T00:01:42;3.40;;;2.70;;
8046;SDS011;74083;42.516;23.358;2024-01-15T00:04:28;3.10;;;2.80;;
8046;SDS011;74083;42.516;23.358;2024-01-15T00:07:15;5.03;;;2.90;;
8046;SDS011;74083;42.516;23.358;2024-01-15T00:10:00;3.83;;;3.23;;
8046;SDS011;74083;42.516;23.358;2024-01-15T00:12:46;3.23;;;2.93;;
8046;SDS011;74083;42.516;23.358;2024-01-15T00:15:32;3.80;;;2.67;;
8046;SDS011;74083;42.516;23.358;2024-01-15T00:18:17;3.10;;;2.80;;
8046;SDS011;74083;42.516;23.358;2024-01-15T00:21:03;3.23;;;2.73;;
8046;SDS011;74083;42.516;23.358;2024-01-15T00:23:50;3.37;;;2.37;;
8046;SDS011;74083;42.516;23.358;2024-01-15T00:26:36;2.70;;;2.50;;
8046;SDS011;74083;42.516;23.358;2024-01-15T00:29:21;2.90;;;2.60;;
8046;SDS011;74083;42.516;23.358;2024-01-15T00:32:07;3.53;;;2.90;;
8046;SDS011;74083;42.516;23.358;2024-01-15T00:34:52;3.10;;;2.77;;
8046;SDS011;74083;42.516;23.358;2024-01-15T00:37:38;3.17;;;2.87;;
8046;SDS011;74083;42.516;23.358;2024-01-15T00:40:26;3.33;;;2.90;;
8046;SDS011;74083;42.516;23.358;2024-01-15T00:43:12;3.83;;;3.17;;
8046;SDS011;74083;42.516;23.358;2024-01-15T00:45:57;3.30;;;3.00;;
8046;SDS011;74083;42.516;23.358;2024-01-15T00:48:43;5.07;;;3.20;;
8046;SDS011;74083;42.516;23.358;2024-01-15T00:51:30;3.77;;;2.90;;
8046;SDS011;74083;42.516;23.358;2024-01-15T00:54:16;3.43;;;3.10;;
8046;SDS011;74083;42.516;23.358;2024-01-15T00:57:03;3.27;;;2.87;;
8046;SDS011;74083;42.516;23.358;2024-01-15T00:59:49;3.43;;;2.77;;
8046;SDS011;74083;42.516;23.358;2024-01-15T01:02:34;3.40;;;3.10;;
8046;SDS011;74083;42.516;23.358;2024-01-15T01:05:20;4.20;;;3.37;;
8046;SDS011;74083;42.516;23.358;2024-01-15T01:08:05;4.20;;;2.90;;
8046;SDS011;74083;42.516;23.358;2024-01-15T01:10:51;3.63;;;2.93;;
8046;SDS011;74083;42.516;23.358;2024-01-15T01:13:38;2.83;;;2.63;;
8046;SDS011;74083;42.516;23.358;2024-01-15T01:16:23;3.20;;;2.90;;
8046;SDS011;74083;42.516;23.358;2024-01-15T01:19:09;3.13;;;2.83;;
8046;SDS011;74083;42.516;23.358;2024-01-15T01:21:54;4.07;;;2.90;;
8046;SDS011;74083;42.516;23.358;2024-01-15T01:24:39;4.57;;;2.83;;
8046;SDS011;74083;42.516;23.358;2024-01-15T01:27:25;3.13;;;2.80;;
8046;SDS011;74083;42.516;23.358;2024-01-15T01:30:11;3.83;;;2.90;;
8046;SDS011;74083;42.516;23.358;2024-01-15T01:32:57;3.47;;;2.90;;
8046;SDS011;74083;42.516;23.358;2024-01-15T01:35:43;5.93;;;3.07;;
8046;SDS011;74083;42.516;23.358;2024-01-15T01:38:28;2.87;;;2.50;;
8046;SDS011;74083;42.516;23.358;2024-01-15T01:41:14;4.93;;;2.90;;
8046;SDS011;74083;42.516;23.358;2024-01-15T01:43:59;3.97;;;2.90;;
8046;SDS011;74083;42.516;23.358;2024-01-15T01:46:47;3.60;;;2.77;;
8046;SDS011;74083;42.516;23.358;2024-01-15T01:49:33;4.50;;;2.77;;
8046;SDS011;74083;42.516;23.358;2024-01-15T01:52:20;3.53;;;2.90;;
8046;SDS011;74083;42.516;23.358;2024-01-15T01:55:06;4.40;;;3.20;;
8046;SDS011;74083;42.516;23.358;2024-01-15T01:57:54;4.50;;;3.20;;
8046;SDS011;74083;42.516;23.358;2024-01-15T02:00:40;3.50;;;3.20;;
8046;SDS011;74083;42.516;23.358;2024-01-15T02:03:28;3.33;;;2.93;;
8046;SDS011;74083;42.516;23.358;2024-01-15T02:06:15;3.70;;;3.30;;
8046;SDS011;74083;42.516;23.358;2024-01-15T02:09:00;3.67;;;3.10;;
8046;SDS011;74083;42.516;23.358;2024-01-15T02:11:46;4.03;;;3.10;;
8046;SDS011;74083;42.516;23.358;2024-01-15T02:14:33;3.93;;;3.10;;
8046;SDS011;74083;42.516;23.358;2024-01-15T02:17:18;4.93;;;3.47;;
8046;SDS011;74083;42.516;23.358;2024-01-15T02:20:06;3.63;;;3.27;;
8046;SDS011;74083;42.516;23.358;2024-01-15T02:22:52;4.87;;;3.30;;
8046;SDS011;74083;42.516;23.358;2024-01-15T02:25:40;4.47;;;3.57;;
8046;SDS011;74083;42.516;23.358;2024-01-15T02:28:27;3.43;;;3.13;;
8046;SDS011;74083;42.516;23.358;2024-01-15T02:31:13;3.77;;;3.17;;
8046;SDS011;74083;42.516;23.358;2024-01-15T02:33:58;4.10;;;3.40;;
8046;SDS011;74083;42.516;23.358;2024-01-15T02:36:44;3.23;;;2.93;;
8046;SDS011;74083;42.516;23.358;2024-01-15T02:39:30;4.23;;;3.37;;
8046;SDS011;74083;42.516;23.358;2024-01-15T02:42:16;4.07;;;3.20;;
8046;SDS011;74083;42.516;23.358;2024-01-15T02:45:02;3.80;;;3.40;;
8046;SDS011;74083;42.516;23.358;2024-01-15T02:47:48;3.53;;;3.23;;
8046;SDS011;74083;42.516;23.358;2024-01-15T02:50:34;3.73;;;3.27;;
8046;SDS011;74083;42.516;23.358;2024-01-15T02:53:19;4.70;;;2.93;;
8046;SDS011;74083;42.516;23.358;2024-01-15T02:56:04;3.47;;;3.17;;
8046;SDS011;74083;42.516;23.358;2024-01-15T02:58:53;3.70;;;3.33;;
8046;SDS011;74083;42.516;23.358;2024-01-15T03:01:39;4.23;;;3.27;;
8046;SDS011;74083;42.516;23.358;2024-01-15T03:04:24;4.27;;;3.20;;
8046;SDS011;74083;42.516;23.358;2024-01-15T03:07:10;3.97;;;3.10;;
8046;SDS011;74083;42.516;23.358;2024-01-15T03:09:56;3.30;;;3.00;;
8046;SDS011;74083;42.516;23.358;2024-01-15T03:12:41;4.53;;;3.27;;
8046;SDS011;74083;42.516;23.358;2024-01-15T03:15:28;3.47;;;2.93;;
8046;SDS011;74083;42.516;23.358;2024-01-15T03:18:14;2.97;;;2.70;;
8046;SDS011;74083;42.516;23.358;2024-01-15T03:21:00;4.60;;;3.13;;
8046;SDS011;74083;42.516;23.358;2024-01-15T03:23:45;3.30;;;3.00;;
8046;SDS011;74083;42.516;23.358;2024-01-15T03:26:31;3.23;;;2.90;;
8046;SDS011;74083;42.516;23.358;2024-01-15T03:29:16;3.40;;;3.10;;
8046;SDS011;74083;42.516;23.358;2024-01-15T03:32:04;3.90;;;2.90;;
8046;SDS011;74083;42.516;23.358;2024-01-15T03:34:49;4.13;;;3.30;;
8046;SDS011;74083;42.516;23.358;2024-01-15T03:37:36;4.60;;;3.23;;
8046;SDS011;74083;42.516;23.358;2024-01-15T03:40:21;3.43;;;2.87;;
8046;SDS011;74083;42.516;23.358;2024-01-15T03:43:06;3.67;;;3.20;;
8046;SDS011;74083;42.516;23.358;2024-01-15T03:45:52;3.73;;;3.20;;
8046;SDS011;74083;42.516;23.358;2024-01-15T03:48:39;3.17;;;2.73;;
8046;SDS011;74083;42.516;23.358;2024-01-15T03:51:25;3.17;;;2.73;;
8046;SDS011;74083;42.516;23.358;2024-01-15T03:54:10;3.33;;;2.90;;
8046;SDS011;74083;42.516;23.358;2024-01-15T03:56:56;4.90;;;2.90;;
8046;SDS011;74083;42.516;23.358;2024-01-15T03:59:41;2.97;;;2.60;;
8046;SDS011;74083;42.516;23.358;2024-01-15T04:02:27;5.13;;;3.00;;
8046;SDS011;74083;42.516;23.358;2024-01-15T04:05:14;3.67;;;3.00;;
8046;SDS011;74083;42.516;23.358;2024-01-15T04:08:00;3.63;;;2.90;;
8046;SDS011;74083;42.516;23.358;2024-01-15T04:10:46;3.33;;;3.03;;
8046;SDS011;74083;42.516;23.358;2024-01-15T04:13:32;3.27;;;2.50;;
8046;SDS011;74083;42.516;23.358;2024-01-15T04:16:17;3.10;;;2.80;;
8046;SDS011;74083;42.516;23.358;2024-01-15T04:19:04;4.43;;;3.00;;
8046;SDS011;74083;42.516;23.358;2024-01-15T04:21:51;4.07;;;2.90;;
8046;SDS011;74083;42.516;23.358;2024-01-15T04:24:36;3.27;;;2.97;;
8046;SDS011;74083;42.516;23.358;2024-01-15T04:27:22;4.17;;;2.83;;
8046;SDS011;74083;42.516;23.358;2024-01-15T04:30:08;2.97;;;2.70;;
8046;SDS011;74083;42.516;23.358;2024-01-15T04:32:55;3.30;;;2.77;;
8046;SDS011;74083;42.516;23.358;2024-01-15T04:35:40;2.83;;;2.53;;
8046;SDS011;74083;42.516;23.358;2024-01-15T04:38:27;3.30;;;3.00;;
8046;SDS011;74083;42.516;23.358;2024-01-15T04:41:13;2.50;;;2.30;;
8046;SDS011;74083;42.516;23.358;2024-01-15T04:44:01;2.80;;;2.50;;
8046;SDS011;74083;42.516;23.358;2024-01-15T04:46:47;2.63;;;2.43;;
8046;SDS011;74083;42.516;23.358;2024-01-15T04:49:32;2.83;;;2.50;;
8046;SDS011;74083;42.516;23.358;2024-01-15T04:52:18;3.00;;;2.40;;
8046;SDS011;74083;42.516;23.358;2024-01-15T04:55:05;3.07;;;2.60;;
8046;SDS011;74083;42.516;23.358;2024-01-15T04:57:51;2.57;;;2.23;;
8046;SDS011;74083;42.516;23.358;2024-01-15T05:00:36;3.50;;;2.53;;
8046;SDS011;74083;42.516;23.358;2024-01-15T05:03:23;2.57;;;2.37;;
8046;SDS011;74083;42.516;23.358;2024-01-15T05:06:08;2.57;;;2.20;;
8046;SDS011;74083;42.516;23.358;2024-01-15T05:08:53;2.60;;;2.40;;
8046;SDS011;74083;42.516;23.358;2024-01-15T05:11:41;2.60;;;2.40;;
8046;SDS011;74083;42.516;23.358;2024-01-15T05:14:26;2.63;;;2.30;;
8046;SDS011;74083;42.516;23.358;2024-01-15T05:17:12;2.30;;;2.10;;
8046;SDS011;74083;42.516;23.358;2024-01-15T05:19:57;3.77;;;2.30;;
8046;SDS011;74083;42.516;23.358;2024-01-15T05:22:42;2.40;;;2.20;;
8046;SDS011;74083;42.516;23.358;2024-01-15T05:25:28;2.63;;;2.43;;
8046;SDS011;74083;42.516;23.358;2024-01-15T05:28:16;3.20;;;2.00;;
8046;SDS011;74083;42.516;23.358;2024-01-15T05:31:02;3.03;;;2.03;;
8046;SDS011;74083;42.516;23.358;2024-01-15T05:33:48;2.57;;;1.90;;
8046;SDS011;74083;42.516;23.358;2024-01-15T05:36:33;2.20;;;2.00;;
8046;SDS011;74083;42.516;23.358;2024-01-15T05:39:19;2.30;;;2.10;;
8046;SDS011;74083;42.516;23.358;2024-01-15T05:42:05;2.37;;;2.10;;
8046;SDS011;74083;42.516;23.358;2024-01-15T05:44:53;2.30;;;2.10;;
8046;SDS011;74083;42.516;23.358;2024-01-15T05:47:38;2.30;;;2.10;;
8046;SDS011;74083;42.516;23.358;2024-01-15T05:50:24;2.10;;;1.90;;
8046;SDS011;74083;42.516;23.358;2024-01-15T05:53:09;2.10;;;1.80;;
8046;SDS011;74083;42.516;23.358;2024-01-15T05:55:55;2.10;;;1.90;;
8046;SDS011;74083;42.516;23.358;2024-01-15T05:58:41;2.00;;;1.90;;
8046;SDS011;74083;42.516;23.358;2024-01-15T06:01:27;2.30;;;2.10;;
8046;SDS011;74083;42.516;23.358;2024-01-15T06:04:13;2.00;;;1.90;;
8046;SDS011;74083;42.516;23.358;2024-01-15T06:06:58;1.80;;;1.70;;
8046;SDS011;74083;42.516;23.358;2024-01-15T06:09:44;2.00;;;1.80;;
8046;SDS011;74083;42.516;23.358;2024-01-15T06:12:30;1.80;;;1.70;;
8046;SDS011;74083;42.516;23.358;2024-01-15T06:15:16;1.90;;;1.80;;
8046;SDS011;74083;42.516;23.358;2024-01-15T06:18:04;1.80;;;1.70;;
8046;SDS011;74083;42.516;23.358;2024-01-15T06:20:49;1.93;;;1.83;;
8046;SDS011;74083;42.516;23.358;2024-01-15T06:23:35;1.90;;;1.80;;
8046;SDS011;74083;42.516;23.358;2024-01-15T06:26:21;2.03;;;1.93;;
8046;SDS011;74083;42.516;23.358;2024-01-15T06:29:06;2.40;;;1.70;;
8046;SDS011;74083;42.516;23.358;2024-01-15T06:31:52;2.23;;;2.00;;
8046;SDS011;74083;42.516;23.358;2024-01-15T06:34:39;2.00;;;1.90;;
8046;SDS011;74083;42.516;23.358;2024-01-15T06:37:25;1.87;;;1.77;;
8046;SDS011;74083;42.516;23.358;2024-01-15T06:40:10;2.03;;;1.90;;
8046;SDS011;74083;42.516;23.358;2024-01-15T06:42:56;1.80;;;1.70;;
8046;SDS011;74083;42.516;23.358;2024-01-15T06:45:42;1.83;;;1.73;;
8046;SDS011;74083;42.516;23.358;2024-01-15T06:48:28;1.80;;;1.70;;
8046;SDS011;74083;42.516;23.358;2024-01-15T06:51:15;1.73;;;1.63;;
8046;SDS011;74083;42.516;23.358;2024-01-15T06:54:01;2.00;;;1.90;;
8046;SDS011;74083;42.516;23.358;2024-01-15T06:56:47;1.80;;;1.70;;
8046;SDS011;74083;42.516;23.358;2024-01-15T06:59:32;1.80;;;1.70;;
8046;SDS011;74083;42.516;23.358;2024-01-15T07:02:19;1.60;;;1.50;;
8046;SDS011;74083;42.516;23.358;2024-01-15T07:05:05;2.03;;;1.77;;
8046;SDS011;74083;42.516;23.358;2024-01-15T07:07:52;1.60;;;1.50;;
8046;SDS011;74083;42.516;23.358;2024-01-15T07:10:38;1.80;;;1.70;;
8046;SDS011;74083;42.516;23.358;2024-01-15T07:13:24;1.67;;;1.57;;
8046;SDS011;74083;42.516;23.358;2024-01-15T07:16:10;1.70;;;1.60;;
8046;SDS011;74083;42.516;23.358;2024-01-15T07:18:55;2.17;;;1.73;;
8046;SDS011;74083;42.516;23.358;2024-01-15T07:21:41;1.60;;;1.50;;
8046;SDS011;74083;42.516;23.358;2024-01-15T07:24:28;1.67;;;1.57;;
8046;SDS011;74083;42.516;23.358;2024-01-15T07:27:14;1.70;;;1.60;;
8046;SDS011;74083;42.516;23.358;2024-01-15T07:29:59;1.60;;;1.50;;
8046;SDS011;74083;42.516;23.358;2024-01-15T07:32:48;1.70;;;1.60;;
8046;SDS011;74083;42.516;23.358;2024-01-15T07:35:33;1.70;;;1.60;;
8046;SDS011;74083;42.516;23.358;2024-01-15T07:38:19;1.53;;;1.43;;
8046;SDS011;74083;42.516;23.358;2024-01-15T07:41:08;1.77;;;1.60;;
8046;SDS011;74083;42.516;23.358;2024-01-15T07:43:54;2.10;;;1.40;;
8046;SDS011;74083;42.516;23.358;2024-01-15T07:46:39;2.33;;;1.50;;
8046;SDS011;74083;42.516;23.358;2024-01-15T07:49:26;1.60;;;1.50;;
8046;SDS011;74083;42.516;23.358;2024-01-15T07:52:12;1.60;;;1.50;;
8046;SDS011;74083;42.516;23.358;2024-01-15T07:54:57;1.77;;;1.60;;
8046;SDS011;74083;42.516;23.358;2024-01-15T07:57:45;13.03;;;2.20;;
8046;SDS011;74083;42.516;23.358;2024-01-15T08:00:30;6.40;;;1.83;;
8046;SDS011;74083;42.516;23.358;2024-01-15T08:03:16;1.70;;;1.60;;
8046;SDS011;74083;42.516;23.358;2024-01-15T08:06:01;1.57;;;1.47;;
8046;SDS011;74083;42.516;23.358;2024-01-15T08:08:47;4.50;;;1.70;;
8046;SDS011;74083;42.516;23.358;2024-01-15T08:11:33;1.73;;;1.63;;
8046;SDS011;74083;42.516;23.358;2024-01-15T08:14:21;1.67;;;1.57;;
8046;SDS011;74083;42.516;23.358;2024-01-15T08:17:06;1.63;;;1.53;;
8046;SDS011;74083;42.516;23.358;2024-01-15T08:19:52;1.73;;;1.53;;
8046;SDS011;74083;42.516;23.358;2024-01-15T08:22:38;2.57;;;1.70;;
8046;SDS011;74083;42.516;23.358;2024-01-15T08:25:24;1.67;;;1.57;;
8046;SDS011;74083;42.516;23.358;2024-01-15T08:28:10;1.53;;;1.40;;
8046;SDS011;74083;42.516;23.358;2024-01-15T08:30:56;1.67;;;1.50;;
8046;SDS011;74083;42.516;23.358;2024-01-15T08:33:42;1.60;;;1.50;;
8046;SDS011;74083;42.516;23.358;2024-01-15T08:36:28;1.57;;;1.40;;
8046;SDS011;74083;42.516;23.358;2024-01-15T08:39:14;1.97;;;1.60;;
8046;SDS011;74083;42.516;23.358;2024-01-15T08:42:00;1.60;;;1.40;;
8046;SDS011;74083;42.516;23.358;2024-01-15T08:44:46;1.63;;;1.53;;
8046;SDS011;74083;42.516;23.358;2024-01-15T08:47:33;1.57;;;1.47;;
8046;SDS011;74083;42.516;23.358;2024-01-15T08:50:19;1.50;;;1.40;;
8046;SDS011;74083;42.516;23.358;2024-01-15T08:53:04;1.40;;;1.30;;
8046;SDS011;74083;42.516;23.358;2024-01-15T08:55:50;1.40;;;1.30;;
8046;SDS011;74083;42.516;23.358;2024-01-15T08:58:35;1.43;;;1.33;;
8046;SDS011;74083;42.516;23.358;2024-01-15T09:01:21;1.53;;;1.40;;
8046;SDS011;74083;42.516;23.358;2024-01-15T09:04:08;2.00;;;1.90;;
8046;SDS011;74083;42.516;23.358;2024-01-15T09:06:54;1.60;;;1.50;;
8046;SDS011;74083;42.516;23.358;2024-01-15T09:09:40;2.17;;;1.50;;
8046;SDS011;74083;42.516;23.358;2024-01-15T09:12:25;2.30;;;1.70;;
8046;SDS011;74083;42.516;23.358;2024-01-15T09:15:11;1.60;;;1.50;;
8046;SDS011;74083;42.516;23.358;2024-01-15T09:17:57;1.60;;;1.50;;
8046;SDS011;74083;42.516;23.358;2024-01-15T09:20:44;1.60;;;1.50;;
8046;SDS011;74083;42.516;23.358;2024-01-15T09:23:30;1.50;;;1.40;;
8046;SDS011;74083;42.516;23.358;2024-01-15T09:26:16;2.37;;;1.50;;
8046;SDS011;74083;42.516;23.358;2024-01-15T09:29:02;1.50;;;1.40;;
8046;SDS011;74083;42.516;23.358;2024-01-15T09:31:48;1.60;;;1.50;;
8046;SDS011;74083;42.516;23.358;2024-01-15T09:34:33;1.60;;;1.43;;
8046;SDS011;74083;42.516;23.358;2024-01-15T09:37:21;1.90;;;1.50;;
8046;SDS011;74083;42.516;23.358;2024-01-15T09:40:07;1.60;;;1.50;;
8046;SDS011;74083;42.516;23.358;2024-01-15T09:42:57;2.00;;;1.63;;
8046;SDS011;74083;42.516;23.358;2024-01-15T09:45:43;1.73;;;1.50;;
8046;SDS011;74083;42.516;23.358;2024-01-15T09:48:30;1.43;;;1.33;;
8046;SDS011;74083;42.516;23.358;2024-01-15T09:51:17;1.43;;;1.33;;
8046;SDS011;74083;42.516;23.358;2024-01-15T09:54:06;1.80;;;1.40;;
8046;SDS011;74083;42.516;23.358;2024-01-15T09:56:52;5.10;;;1.70;;
8046;SDS011;74083;42.516;23.358;2024-01-15T09:59:39;1.80;;;1.70;;
8046;SDS011;74083;42.516;23.358;2024-01-15T10:02:27;1.67;;;1.50;;
8046;SDS011;74083;42.516;23.358;2024-01-15T10:05:14;1.50;;;1.40;;
8046;SDS011;74083;42.516;23.358;2024-01-15T10:08:00;2.53;;;1.73;;
8046;SDS011;74083;42.516;23.358;2024-01-15T10:10:48;1.77;;;1.67;;
8046;SDS011;74083;42.516;23.358;2024-01-15T10:13:34;1.50;;;1.40;;
8046;SDS011;74083;42.516;23.358;2024-01-15T10:16:20;1.73;;;1.50;;
8046;SDS011;74083;42.516;23.358;2024-01-15T10:19:05;1.60;;;1.50;;
8046;SDS011;74083;42.516;23.358;2024-01-15T10:21:52;1.70;;;1.60;;
8046;SDS011;74083;42.516;23.358;2024-01-15T10:24:37;2.10;;;1.60;;
8046;SDS011;74083;42.516;23.358;2024-01-15T10:27:26;1.77;;;1.67;;
8046;SDS011;74083;42.516;23.358;2024-01-15T10:30:13;1.70;;;1.60;;
8046;SDS011;74083;42.516;23.358;2024-01-15T10:33:00;1.50;;;1.40;;
8046;SDS011;74083;42.516;23.358;2024-01-15T10:35:47;1.80;;;1.50;;
8046;SDS011;74083;42.516;23.358;2024-01-15T10:38:33;1.80;;;1.70;;
8046;SDS011;74083;42.516;23.358;2024-01-15T10:41:18;2.23;;;1.83;;
8046;SDS011;74083;42.516;23.358;2024-01-15T10:44:06;1.90;;;1.50;;
8046;SDS011;74083;42.516;23.358;2024-01-15T10:46:51;1.70;;;1.60;;
8046;SDS011;74083;42.516;23.358;2024-01-15T10:49:39;1.87;;;1.53;;
8046;SDS011;74083;42.516;23.358;2024-01-15T10:52:25;2.60;;;1.60;;
8046;SDS011;74083;42.516;23.358;2024-01-15T10:55:11;1.83;;;1.60;;
8046;SDS011;74083;42.516;23.358;2024-01-15T10:57:57;1.97;;;1.77;;
8046;SDS011;74083;42.516;23.358;2024-01-15T11:00:44;1.77;;;1.67;;
8046;SDS011;74083;42.516;23.358;2024-01-15T11:03:30;1.77;;;1.67;;
8046;SDS011;74083;42.516;23.358;2024-01-15T11:06:16;1.70;;;1.60;;
8046;SDS011;74083;42.516;23.358;2024-01-15T11:09:03;1.83;;;1.73;;
8046;SDS011;74083;42.516;23.358;2024-01-15T11:11:52;1.60;;;1.50;;
8046;SDS011;74083;42.516;23.358;2024-01-15T11:14:51;1.80;;;1.70;;
8046;SDS011;74083;42.516;23.358;2024-01-15T11:20:57;1.70;;;1.60;;
8046;SDS011;74083;42.516;23.358;2024-01-15T11:24:10;1.70;;;1.60;;
8046;SDS011;74083;42.516;23.358;2024-01-15T11:27:15;1.77;;;1.67;;
8046;SDS011;74083;42.516;23.358;2024-01-15T11:30:25;1.80;;;1.70;;
8046;SDS011;74083;42.516;23.358;2024-01-15T11:36:19;3.43;;;1.70;;
8046;SDS011;74083;42.516;23.358;2024-01-15T11:42:23;1.90;;;1.80;;
8046;SDS011;74083;42.516;23.358;2024-01-15T11:45:08;2.27;;;2.00;;
8046;SDS011;74083;42.516;23.358;2024-01-15T11:51:00;2.33;;;2.13;;
8046;SDS011;74083;42.516;23.358;2024-01-15T11:53:48;2.67;;;1.90;;
8046;SDS011;74083;42.516;23.358;2024-01-15T11:56:37;2.20;;;2.03;;
8046;SDS011;74083;42.516;23.358;2024-01-15T11:59:23;3.87;;;2.00;;
8046;SDS011;74083;42.516;23.358;2024-01-15T12:02:09;2.73;;;2.20;;
8046;SDS011;74083;42.516;23.358;2024-01-15T12:04:56;3.40;;;2.20;;
8046;SDS011;74083;42.516;23.358;2024-01-15T12:07:44;2.20;;;2.00;;
8046;SDS011;74083;42.516;23.358;2024-01-15T12:10:31;2.03;;;1.93;;
8046;SDS011;74083;42.516;23.358;2024-01-15T12:13:17;3.13;;;2.10;;
8046;SDS011;74083;42.516;23.358;2024-01-15T12:16:03;2.20;;;2.00;;
8046;SDS011;74083;42.516;23.358;2024-01-15T12:18:49;2.23;;;2.03;;
8046;SDS011;74083;42.516;23.358;2024-01-15T12:21:34;2.60;;;2.07;;
8046;SDS011;74083;42.516;23.358;2024-01-15T12:24:21;2.47;;;2.27;;
8046;SDS011;74083;42.516;23.358;2024-01-15T12:27:07;2.60;;;2.40;;
8046;SDS011;74083;42.516;23.358;2024-01-15T12:29:53;2.13;;;2.03;;
8046;SDS011;74083;42.516;23.358;2024-01-15T12:32:39;2.87;;;2.17;;
8046;SDS011;74083;42.516;23.358;2024-01-15T12:35:26;1.97;;;1.87;;
8046;SDS011;74083;42.516;23.358;2024-01-15T12:38:11;2.40;;;2.20;;
8046;SDS011;74083;42.516;23.358;2024-01-15T12:40:59;2.53;;;2.30;;
8046;SDS011;74083;42.516;23.358;2024-01-15T12:43:45;2.23;;;2.10;;
8046;SDS011;74083;42.516;23.358;2024-01-15T12:46:32;2.10;;;2.00;;
8046;SDS011;74083;42.516;23.358;2024-01-15T12:49:17;2.23;;;1.97;;
8046;SDS011;74083;42.516;23.358;2024-01-15T12:52:03;2.10;;;1.90;;
8046;SDS011;74083;42.516;23.358;2024-01-15T12:54:49;2.43;;;2.20;;
8046;SDS011;74083;42.516;23.358;2024-01-15T12:57:37;1.80;;;1.70;;
8046;SDS011;74083;42.516;23.358;2024-01-15T13:00:22;2.20;;;2.00;;
8046;SDS011;74083;42.516;23.358;2024-01-15T13:03:09;2.10;;;1.90;;
8046;SDS011;74083;42.516;23.358;2024-01-15T13:05:55;1.97;;;1.87;;
8046;SDS011;74083;42.516;23.358;2024-01-15T13:08:41;2.20;;;2.00;;
8046;SDS011;74083;42.516;23.358;2024-01-15T13:11:27;2.07;;;1.77;;
8046;SDS011;74083;42.516;23.358;2024-01-15T13:14:14;1.77;;;1.67;;
8046;SDS011;74083;42.516;23.358;2024-01-15T13:17:00;2.10;;;1.90;;
8046;SDS011;74083;42.516;23.358;2024-01-15T13:19:47;2.60;;;1.93;;
8046;SDS011;74083;42.516;23.358;2024-01-15T13:22:33;2.80;;;1.90;;
8046;SDS011;74083;42.516;23.358;2024-01-15T13:25:19;2.07;;;1.80;;
8046;SDS011;74083;42.516;23.358;2024-01-15T13:28:05;3.33;;;2.00;;
8046;SDS011;74083;42.516;23.358;2024-01-15T13:30:53;1.97;;;1.83;;
8046;SDS011;74083;42.516;23.358;2024-01-15T13:33:39;2.17;;;1.80;;
8046;SDS011;74083;42.516;23.358;2024-01-15T13:36:24;2.00;;;1.80;;
8046;SDS011;74083;42.516;23.358;2024-01-15T13:39:10;1.83;;;1.63;;
8046;SDS011;74083;42.516;23.358;2024-01-15T13:41:55;1.70;;;1.60;;
8046;SDS011;74083;42.516;23.358;2024-01-15T13:44:41;1.60;;;1.50;;
8046;SDS011;74083;42.516;23.358;2024-01-15T13:47:28;3.13;;;1.60;;
8046;SDS011;74083;42.516;23.358;2024-01-15T13:50:14;1.90;;;1.80;;
8046;SDS011;74083;42.516;23.358;2024-01-15T13:53:00;2.07;;;1.80;;
8046;SDS011;74083;42.516;23.358;2024-01-15T13:55:45;1.90;;;1.70;;
8046;SDS011;74083;42.516;23.358;2024-01-15T13:58:31;1.70;;;1.60;;
8046;SDS011;74083;42.516;23.358;2024-01-15T14:01:18;1.70;;;1.60;;
8046;SDS011;74083;42.516;23.358;2024-01-15T14:04:05;1.83;;;1.73;;
8046;SDS011;74083;42.516;23.358;2024-01-15T14:06:50;1.97;;;1.80;;
8046;SDS011;74083;42.516;23.358;2024-01-15T14:09:36;1.90;;;1.57;;
8046;SDS011;74083;42.516;23.358;2024-01-15T14:12:22;1.70;;;1.60;;
8046;SDS011;74083;42.516;23.358;2024-01-15T14:15:08;2.00;;;1.60;;
8046;SDS011;74083;42.516;23.358;2024-01-15T14:17:53;1.63;;;1.53;;
8046;SDS011;74083;42.516;23.358;2024-01-15T14:20:40;1.53;;;1.43;;
8046;SDS011;74083;42.516;23.358;2024-01-15T14:23:26;1.77;;;1.67;;
8046;SDS011;74083;42.516;23.358;2024-01-15T14:26:12;2.83;;;1.80;;
8046;SDS011;74083;42.516;23.358;2024-01-15T14:28:58;3.93;;;1.70;;
8046;SDS011;74083;42.516;23.358;2024-01-15T14:31:44;1.77;;;1.63;;
8046;SDS011;74083;42.516;23.358;2024-01-15T14:34:30;2.77;;;1.73;;
8046;SDS011;74083;42.516;23.358;2024-01-15T14:37:17;1.70;;;1.60;;
8046;SDS011;74083;42.516;23.358;2024-01-15T14:40:05;1.70;;;1.60;;
8046;SDS011;74083;42.516;23.358;2024-01-15T14:42:52;1.70;;;1.60;;
8046;SDS011;74083;42.516;23.358;2024-01-15T14:45:38;1.80;;;1.70;;
8046;SDS011;74083;42.516;23.358;2024-01-15T14:48:24;1.70;;;1.60;;
8046;SDS011;74083;42.516;23.358;2024-01-15T14:51:10;2.03;;;1.83;;
8046;SDS011;74083;42.516;23.358;2024-01-15T14:53:57;1.73;;;1.63;;
8046;SDS011;74083;42.516;23.358;2024-01-15T14:56:43;1.93;;;1.83;;
8046;SDS011;74083;42.516;23.358;2024-01-15T14:59:28;2.73;;;2.03;;
8046;SDS011;74083;42.516;23.358;2024-01-15T15:02:14;2.47;;;1.80;;
8046;SDS011;74083;42.516;23.358;2024-01-15T15:05:01;2.43;;;1.83;;
8046;SDS011;74083;42.516;23.358;2024-01-15T15:07:47;1.83;;;1.70;;
8046;SDS011;74083;42.516;23.358;2024-01-15T15:10:35;1.80;;;1.70;;
8046;SDS011;74083;42.516;23.358;2024-01-15T15:13:20;1.83;;;1.70;;
8046;SDS011;74083;42.516;23.358;2024-01-15T15:16:06;2.13;;;1.93;;
8046;SDS011;74083;42.516;23.358;2024-01-15T15:18:52;1.90;;;1.80;;
8046;SDS011;74083;42.516;23.358;2024-01-15T15:21:38;2.07;;;1.87;;
8046;SDS011;74083;42.516;23.358;2024-01-15T15:24:24;1.93;;;1.83;;
8046;SDS011;74083;42.516;23.358;2024-01-15T15:27:11;1.70;;;1.60;;
8046;SDS011;74083;42.516;23.358;2024-01-15T15:29:57;2.07;;;1.83;;
8046;SDS011;74083;42.516;23.358;2024-01-15T15:32:42;1.70;;;1.60;;
8046;SDS011;74083;42.516;23.358;2024-01-15T15:35:28;1.80;;;1.70;;
8046;SDS011;74083;42.516;23.358;2024-01-15T15:38:14;1.80;;;1.70;;
8046;SDS011;74083;42.516;23.358;2024-01-15T15:41:00;1.80;;;1.70;;
8046;SDS011;74083;42.516;23.358;2024-01-15T15:43:47;1.70;;;1.60;;
8046;SDS011;74083;42.516;23.358;2024-01-15T15:46:33;1.87;;;1.77;;
8046;SDS011;74083;42.516;23.358;2024-01-15T15:49:19;1.63;;;1.40;;
8046;SDS011;74083;42.516;23.358;2024-01-15T15:52:05;2.60;;;1.30;;
8046;SDS011;74083;42.516;23.358;2024-01-15T15:54:50;1.80;;;1.63;;
8046;SDS011;74083;42.516;23.358;2024-01-15T15:57:37;3.07;;;1.67;;
8046;SDS011;74083;42.516;23.358;2024-01-15T16:00:24;1.50;;;1.40;;
8046;SDS011;74083;42.516;23.358;2024-01-15T16:03:10;2.30;;;1.63;;
8046;SDS011;74083;42.516;23.358;2024-01-15T16:05:56;1.70;;;1.60;;
8046;SDS011;74083;42.516;23.358;2024-01-15T16:08:42;1.60;;;1.50;;
8046;SDS011;74083;42.516;23.358;2024-01-15T16:11:28;1.60;;;1.50;;
8046;SDS011;74083;42.516;23.358;2024-01-15T16:14:15;1.73;;;1.60;;
8046;SDS011;74083;42.516;23.358;2024-01-15T16:17:03;1.60;;;1.50;;
8046;SDS011;74083;42.516;23.358;2024-01-15T16:19:49;1.60;;;1.50;;
8046;SDS011;74083;42.516;23.358;2024-01-15T16:22:34;1.30;;;1.30;;
8046;SDS011;74083;42.516;23.358;2024-01-15T16:25:19;1.50;;;1.40;;
8046;SDS011;74083;42.516;23.358;2024-01-15T16:28:05;1.83;;;1.73;;
8046;SDS011;74083;42.516;23.358;2024-01-15T16:30:51;1.77;;;1.67;;
8046;SDS011;74083;42.516;23.358;2024-01-15T16:33:39;1.87;;;1.47;;
8046;SDS011;74083;42.516;23.358;2024-01-15T16:36:24;1.67;;;1.57;;
8046;SDS011;74083;42.516;23.358;2024-01-15T16:39:10;1.60;;;1.50;;
8046;SDS011;74083;42.516;23.358;2024-01-15T16:41:56;1.83;;;1.70;;
8046;SDS011;74083;42.516;23.358;2024-01-15T16:44:42;3.33;;;1.40;;
8046;SDS011;74083;42.516;23.358;2024-01-15T16:47:27;1.73;;;1.60;;
8046;SDS011;74083;42.516;23.358;2024-01-15T16:50:14;1.90;;;1.50;;
8046;SDS011;74083;42.516;23.358;2024-01-15T16:53:00;1.70;;;1.60;;
8046;SDS011;74083;42.516;23.358;2024-01-15T16:55:46;1.63;;;1.53;;